Time;durP1;ratioP1;P1;durP2;ratioP2;P2;SDS_P1;SDS_P2;PMS_P1;PMS_P2;Temp;Humidity;BMP_temperature;BMP_pressure;BME280_temperature;BME280_humidity;BME280_pressure;Samples;Min_cycle;Max_cycle;Signal;HPM_P1;HPM_P2
2024/01/07 00:00:34;;;;;;;27.05;10.60;;;6.50;99.90;;;;;;5070649;28;20078;-80
2024/01/07 00:03:02;;;;;;;25.92;11.00;;;6.50;99.90;;;;;;5077969;28;20457;-81
2024/01/07 00:05:31;;;;;;;26.05;10.43;;;6.50;99.90;;;;;;5076358;28;20075;-81
2024/01/07 00:08:02;;;;;;;22.23;9.68;;;6.50;99.90;;;;;;5076728;28;20047;-78
2024/01/07 00:10:31;;;;;;;20.95;9.32;;;6.50;99.90;;;;;;5072422;28;20048;-80
2024/01/07 00:13:00;;;;;;;22.25;9.98;;;6.50;99.90;;;;;;5076667;28;20055;-80
2024/01/07 00:15:29;;;;;;;24.60;10.50;;;6.50;99.90;;;;;;5068324;28;20051;-81
2024/01/07 00:17:57;;;;;;;24.33;10.48;;;6.50;99.90;;;;;;5071890;28;20055;-81
2024/01/07 00:20:26;;;;;;;19.65;9.10;;;6.50;99.90;;;;;;5073040;28;20180;-80
2024/01/07 00:22:54;;;;;;;20.23;9.45;;;6.50;99.90;;;;;;5075871;28;20051;-80
2024/01/07 00:25:22;;;;;;;18.75;9.13;;;6.50;99.90;;;;;;5086873;28;20507;-81
2024/01/07 00:27:55;;;;;;;19.98;8.57;;;6.50;99.90;;;;;;5079514;28;20083;-82
2024/01/07 00:30:23;;;;;;;21.80;9.52;;;6.50;99.90;;;;;;5076278;28;20204;-81
2024/01/07 00:32:52;;;;;;;20.83;9.13;;;6.50;99.90;;;;;;5081244;28;20128;-82
2024/01/07 00:35:20;;;;;;;20.67;8.45;;;6.50;99.90;;;;;;5076162;28;20067;-80
2024/01/07 00:37:49;;;;;;;23.45;8.93;;;6.50;99.90;;;;;;5084423;28;20044;-82
2024/01/07 00:40:17;;;;;;;20.70;8.98;;;6.50;99.90;;;;;;5081702;28;20052;-82
2024/01/07 00:42:46;;;;;;;21.88;9.48;;;6.50;99.90;;;;;;5073142;28;20546;-81
2024/01/07 00:45:16;;;;;;;23.23;10.02;;;6.50;99.90;;;;;;5071460;28;20078;-82
2024/01/07 00:47:44;;;;;;;20.20;9.13;;;6.50;99.90;;;;;;5077803;28;20105;-82
2024/01/07 00:50:13;;;;;;;21.40;8.60;;;6.50;99.90;;;;;;5081365;28;20110;-82
2024/01/07 00:52:43;;;;;;;20.27;9.25;;;6.50;99.90;;;;;;5096560;27;20048;-81
2024/01/07 00:55:11;;;;;;;21.02;9.32;;;6.50;99.90;;;;;;5077265;28;20059;-78
2024/01/07 00:57:40;;;;;;;23.17;10.32;;;6.50;99.90;;;;;;5075233;28;22683;-80
2024/01/07 01:00:10;;;;;;;24.92;10.75;;;6.50;99.90;;;;;;5080579;28;20051;-81
2024/01/07 01:02:41;;;;;;;22.27;10.00;;;6.50;99.90;;;;;;5075711;28;20052;-81
2024/01/07 01:05:10;;;;;;;22.42;9.48;;;6.50;99.90;;;;;;5073790;28;20059;-80
2024/01/07 01:07:38;;;;;;;22.98;10.07;;;6.50;99.90;;;;;;5073998;28;20048;-80
2024/01/07 01:10:08;;;;;;;24.08;10.20;;;6.50;99.90;;;;;;5072498;28;20055;-81
2024/01/07 01:12:37;;;;;;;23.35;9.38;;;6.50;99.90;;;;;;5039345;28;20050;-79
2024/01/07 01:15:06;;;;;;;19.58;9.02;;;6.50;99.90;;;;;;5075137;28;20048;-81
2024/01/07 01:17:34;;;;;;;26.70;10.38;;;6.50;99.90;;;;;;5078359;28;20040;-80
2024/01/07 01:20:05;;;;;;;21.55;8.32;;;6.50;99.90;;;;;;5069595;28;20052;-81
2024/01/07 01:22:33;;;;;;;21.88;9.60;;;6.50;99.90;;;;;;5075571;28;20606;-79
2024/01/07 01:25:03;;;;;;;18.60;8.20;;;6.50;99.90;;;;;;5074145;28;20079;-78
2024/01/07 01:27:32;;;;;;;20.60;8.80;;;6.50;99.90;;;;;;5079455;28;20528;-81
2024/01/07 01:30:01;;;;;;;19.55;8.73;;;6.50;99.90;;;;;;5076737;28;22624;-80
2024/01/07 01:32:30;;;;;;;18.83;8.65;;;6.50;99.90;;;;;;5073077;27;20052;-80
2024/01/07 01:34:58;;;;;;;20.38;7.78;;;6.50;99.90;;;;;;5070778;28;22774;-79
2024/01/07 01:37:28;;;;;;;16.73;7.43;;;6.50;99.90;;;;;;5075272;28;20044;-81
2024/01/07 01:39:57;;;;;;;20.05;8.40;;;6.50;99.90;;;;;;5078150;28;20058;-80
2024/01/07 01:42:25;;;;;;;18.38;7.70;;;6.50;99.90;;;;;;5073759;28;20913;-80
2024/01/07 01:44:59;;;;;;;16.85;7.55;;;6.50;99.90;;;;;;5079161;28;20064;-80
2024/01/07 01:47:28;;;;;;;16.67;7.85;;;6.50;99.90;;;;;;5069850;28;20129;-79
2024/01/07 01:49:56;;;;;;;18.20;7.57;;;6.50;99.90;;;;;;5077658;28;20055;-81
2024/01/07 01:52:25;;;;;;;17.92;7.63;;;6.50;99.90;;;;;;5076321;28;20552;-79
2024/01/07 01:54:56;;;;;;;15.73;7.05;;;6.50;99.90;;;;;;5075345;28;20058;-79
2024/01/07 01:57:29;;;;;;;15.02;6.97;;;6.50;99.90;;;;;;5059835;28;20968;-82
2024/01/07 02:00:02;;;;;;;14.43;6.70;;;6.50;99.90;;;;;;5078218;28;20571;-80
2024/01/07 02:02:34;;;;;;;15.32;6.90;;;6.50;99.90;;;;;;5071855;28;20055;-80
2024/01/07 02:05:03;;;;;;;12.18;5.97;;;6.50;99.90;;;;;;5073347;28;20044;-80
2024/01/07 02:07:32;;;;;;;11.20;5.88;;;6.50;99.90;;;;;;5060893;28;20048;-82
2024/01/07 02:10:02;;;;;;;14.38;6.30;;;6.50;99.90;;;;;;5067912;28;20052;-80
2024/01/07 02:12:31;;;;;;;10.35;4.80;;;6.50;99.90;;;;;;5074777;28;20054;-80
2024/01/07 02:15:00;;;;;;;12.32;5.60;;;6.50;99.90;;;;;;5072823;28;20105;-81
2024/01/07 02:17:28;;;;;;;10.70;5.70;;;6.60;99.90;;;;;;5088818;28;20064;-81
2024/01/07 02:19:57;;;;;;;13.55;5.30;;;6.60;99.90;;;;;;5078193;28;20086;-80
2024/01/07 02:22:25;;;;;;;12.27;5.25;;;6.50;99.90;;;;;;5090978;27;20133;-77
2024/01/07 02:24:55;;;;;;;12.18;5.00;;;6.60;99.90;;;;;;5090739;28;20064;-80
2024/01/07 02:27:24;;;;;;;10.73;5.13;;;6.50;99.90;;;;;;5078887;28;20060;-81
2024/01/07 02:29:53;;;;;;;12.52;4.88;;;6.60;99.90;;;;;;5076907;28;20036;-80
2024/01/07 02:32:21;;;;;;;12.15;5.05;;;6.60;99.90;;;;;;5075347;28;20524;-80
2024/01/07 02:34:50;;;;;;;12.98;6.13;;;6.60;99.90;;;;;;5091058;27;20043;-80
2024/01/07 02:37:18;;;;;;;13.48;6.10;;;6.60;99.90;;;;;;5087522;27;20078;-80
2024/01/07 02:39:47;;;;;;;13.07;5.60;;;6.60;99.90;;;;;;5089435;27;20044;-80
2024/01/07 02:42:29;;;;;;;11.95;5.65;;;6.60;99.90;;;;;;5061021;28;20058;-80
2024/01/07 02:44:58;;;;;;;15.10;6.32;;;6.60;99.90;;;;;;5080908;28;20052;-80
2024/01/07 02:47:27;;;;;;;14.35;6.47;;;6.60;99.90;;;;;;5080323;28;20193;-81
2024/01/07 02:49:56;;;;;;;15.45;6.80;;;6.60;99.90;;;;;;5072220;28;20059;-82
2024/01/07 02:52:25;;;;;;;13.15;6.32;;;6.60;99.90;;;;;;5061675;28;20047;-80
2024/01/07 02:54:53;;;;;;;15.10;6.18;;;6.60;99.90;;;;;;5072933;28;20048;-82
2024/01/07 02:57:22;;;;;;;16.65;6.70;;;6.60;99.90;;;;;;5073721;28;20820;-82
2024/01/07 02:59:52;;;;;;;13.80;6.50;;;6.60;99.90;;;;;;5073477;28;20058;-80
2024/01/07 03:02:20;;;;;;;13.35;5.80;;;6.60;99.90;;;;;;5068106;28;20059;-77
2024/01/07 03:04:49;;;;;;;14.13;6.40;;;6.60;99.90;;;;;;5074402;28;20047;-80
2024/01/07 03:07:17;;;;;;;11.88;5.68;;;6.60;99.90;;;;;;5091091;28;20048;-81
2024/01/07 03:09:46;;;;;;;11.80;5.40;;;6.60;99.90;;;;;;5071514;28;20056;-79
2024/01/07 03:12:16;;;;;;;13.60;6.03;;;6.60;99.90;;;;;;5071853;28;20055;-80
2024/01/07 03:14:44;;;;;;;11.50;5.80;;;6.60;99.90;;;;;;5094237;27;20120;-80
2024/01/07 03:17:17;;;;;;;17.10;6.63;;;6.60;99.90;;;;;;5079534;28;20563;-81
2024/01/07 03:19:45;;;;;;;13.23;6.45;;;6.60;99.90;;;;;;5089532;27;20067;-81
2024/01/07 03:22:14;;;;;;;15.70;6.38;;;6.60;99.90;;;;;;5076388;28;20453;-81
2024/01/07 03:24:45;;;;;;;12.52;6.10;;;6.60;99.90;;;;;;5076301;28;21034;-82
2024/01/07 03:27:14;;;;;;;13.70;6.38;;;6.70;99.90;;;;;;5072700;28;20775;-82
2024/01/07 03:29:43;;;;;;;13.40;6.22;;;6.60;99.90;;;;;;5071642;28;20044;-80
2024/01/07 03:32:11;;;;;;;14.18;6.80;;;6.60;99.90;;;;;;5069659;28;22653;-83
2024/01/07 03:34:41;;;;;;;15.68;6.03;;;6.60;99.90;;;;;;5072997;28;20044;-82
2024/01/07 03:37:10;;;;;;;14.60;6.07;;;6.60;99.90;;;;;;5070230;28;22816;-81
2024/01/07 03:39:38;;;;;;;12.65;6.30;;;6.60;99.90;;;;;;5079882;28;20054;-81
2024/01/07 03:42:11;;;;;;;13.13;5.63;;;6.60;99.90;;;;;;5082214;28;20064;-81
2024/01/07 03:44:40;;;;;;;13.35;6.15;;;6.60;99.90;;;;;;5078901;27;20487;-80
2024/01/07 03:47:08;;;;;;;12.85;5.45;;;6.60;99.90;;;;;;5073948;28;20047;-81
2024/01/07 03:49:37;;;;;;;11.25;5.38;;;6.60;99.90;;;;;;5076010;28;20058;-82
2024/01/07 03:52:08;;;;;;;12.23;5.88;;;6.60;99.90;;;;;;5074123;28;20799;-80
2024/01/07 03:54:37;;;;;;;10.68;5.32;;;6.60;99.90;;;;;;5089343;28;20438;-81
2024/01/07 03:57:05;;;;;;;10.38;4.90;;;6.60;99.90;;;;;;5094489;27;20158;-81
2024/01/07 03:59:40;;;;;;;8.63;4.80;;;6.60;99.90;;;;;;5075972;28;20052;-79
2024/01/07 04:02:29;;;;;;;11.77;5.03;;;6.70;99.90;;;;;;5078794;28;20063;-82
2024/01/07 04:05:17;;;;;;;12.63;5.75;;;6.70;99.90;;;;;;5072541;28;20052;-81
2024/01/07 04:08:10;;;;;;;10.90;5.45;;;6.70;99.90;;;;;;5077024;28;20043;-80
2024/01/07 04:10:52;;;;;;;11.70;6.07;;;6.70;99.90;;;;;;5074027;28;20066;-82
2024/01/07 04:13:48;;;;;;;11.40;5.28;;;6.70;99.90;;;;;;5076651;28;20086;-81
2024/01/07 04:16:23;;;;;;;12.82;5.97;;;6.70;99.90;;;;;;5075363;28;22599;-80
2024/01/07 04:19:18;;;;;;;9.18;4.97;;;6.70;99.90;;;;;;5068713;28;20055;-81
2024/01/07 04:21:53;;;;;;;10.32;4.85;;;6.70;99.90;;;;;;5076528;28;20109;-81
2024/01/07 04:24:50;;;;;;;9.23;4.57;;;6.70;99.90;;;;;;5064143;28;20052;-81
2024/01/07 04:27:25;;;;;;;9.02;4.82;;;6.70;99.90;;;;;;5076272;28;21005;-81
2024/01/07 04:30:20;;;;;;;9.55;4.80;;;6.70;99.90;;;;;;5085105;27;22681;-81
2024/01/07 04:32:56;;;;;;;9.20;4.53;;;6.70;99.90;;;;;;5079074;28;20048;-81
2024/01/07 04:35:51;;;;;;;8.07;4.15;;;6.70;99.90;;;;;;5079522;28;20131;-81
2024/01/07 04:38:26;;;;;;;8.32;4.68;;;6.70;99.90;;;;;;5075409;28;20507;-80
2024/01/07 04:41:23;;;;;;;8.98;4.50;;;6.70;99.90;;;;;;5073179;28;20051;-83
2024/01/07 04:43:58;;;;;;;8.60;4.30;;;6.70;99.90;;;;;;5078404;28;20566;-82
2024/01/07 04:46:49;;;;;;;6.93;3.58;;;6.70;99.90;;;;;;5067522;28;20059;-83
2024/01/07 04:49:36;;;;;;;7.85;3.63;;;6.70;99.90;;;;;;5082842;28;20052;-80
2024/01/07 04:52:25;;;;;;;7.90;3.97;;;6.70;99.90;;;;;;5074301;28;20058;-80
2024/01/07 04:55:14;;;;;;;10.15;4.13;;;6.70;99.90;;;;;;5063544;28;20797;-80
2024/01/07 04:58:01;;;;;;;10.18;3.80;;;6.70;99.90;;;;;;5069799;28;20530;-80
2024/01/07 05:00:56;;;;;;;9.77;4.90;;;6.80;99.90;;;;;;5068661;28;20051;-80
2024/01/07 05:03:45;;;;;;;6.75;3.30;;;6.70;99.90;;;;;;5072863;28;20063;-81
2024/01/07 05:06:26;;;;;;;8.27;4.03;;;6.70;99.90;;;;;;5081826;28;20178;-79
2024/01/07 05:09:22;;;;;;;6.72;3.90;;;6.70;99.90;;;;;;5062204;28;20056;-78
2024/01/07 05:12:11;;;;;;;7.43;3.65;;;6.70;99.90;;;;;;5072620;28;22589;-79
2024/01/07 05:15:00;;;;;;;6.95;3.80;;;6.70;99.90;;;;;;5069569;28;20055;-80
2024/01/07 05:17:41;;;;;;;;;;;6.70;99.90;;;;;;5073767;28;20048;-80
2024/01/07 05:20:30;;;;;;;8.20;3.95;;;6.80;99.90;;;;;;5075879;28;20375;-79
2024/01/07 05:23:12;;;;;;;9.50;3.80;;;6.80;99.90;;;;;;5061035;28;20066;-81
2024/01/07 05:25:59;;;;;;;7.03;3.50;;;6.70;99.90;;;;;;5073949;28;20036;-78
2024/01/07 05:28:48;;;;;;;7.20;3.28;;;6.70;99.90;;;;;;5077427;28;22624;-80
2024/01/07 05:31:31;;;;;;;10.68;3.47;;;6.70;99.90;;;;;;5080691;28;20571;-81
2024/01/07 05:34:28;;;;;;;8.98;4.43;;;6.70;99.90;;;;;;5073018;28;20040;-80
2024/01/07 05:37:04;;;;;;;6.10;3.10;;;6.80;99.90;;;;;;5078447;28;20052;-81
2024/01/07 05:39:59;;;;;;;7.13;3.38;;;6.80;99.90;;;;;;5076139;28;20060;-80
2024/01/07 05:42:34;;;;;;;6.43;3.33;;;6.80;99.90;;;;;;5073429;28;20060;-80
2024/01/07 05:45:30;;;;;;;6.60;3.28;;;6.80;99.90;;;;;;5078678;28;20123;-79
2024/01/07 05:48:08;;;;;;;6.45;3.15;;;6.80;99.90;;;;;;5074177;28;20058;-80
2024/01/07 05:51:02;;;;;;;7.95;3.83;;;6.80;99.90;;;;;;5089968;27;20049;-81
2024/01/07 05:53:37;;;;;;;6.90;3.25;;;6.80;99.90;;;;;;5095032;27;20059;-79
2024/01/07 05:56:32;;;;;;;5.80;3.10;;;6.80;99.90;;;;;;5096870;27;20170;-80
2024/01/07 05:59:20;;;;;;;7.38;3.20;;;6.80;99.90;;;;;;5076763;28;20502;-78
2024/01/07 06:02:16;;;;;;;7.20;3.10;;;6.80;99.90;;;;;;5055337;28;20395;-80
2024/01/07 06:04:52;;;;;;;5.15;3.00;;;6.80;99.90;;;;;;5059520;28;20044;-81
2024/01/07 06:07:41;;;;;;;;;;;6.80;99.90;;;;;;5042807;28;20052;-80
2024/01/07 06:10:22;;;;;;;6.20;2.90;;;6.90;99.90;;;;;;5038366;28;19928;-80
2024/01/07 06:13:18;;;;;;;6.55;3.55;;;6.80;99.90;;;;;;5047871;28;20102;-81
2024/01/07 06:15:53;;;;;;;6.63;3.58;;;6.90;99.90;;;;;;5038906;28;20052;-82
2024/01/07 06:18:48;;;;;;;6.10;3.13;;;6.90;99.90;;;;;;5056031;28;20063;-81
2024/01/07 06:21:24;;;;;;;6.70;2.88;;;6.90;99.90;;;;;;5025507;28;20719;-81
2024/01/07 06:24:13;;;;;;;6.82;2.90;;;6.90;99.90;;;;;;5054001;28;20054;-81
2024/01/07 06:26:54;;;;;;;7.28;3.42;;;6.90;99.90;;;;;;5063536;28;20044;-81
2024/01/07 06:29:43;;;;;;;7.05;3.65;;;6.90;99.90;;;;;;5056391;28;20048;-82
2024/01/07 06:32:32;;;;;;;7.68;3.55;;;7.00;99.90;;;;;;5058093;28;20055;-80
2024/01/07 06:35:14;;;;;;;6.23;3.80;;;6.90;99.90;;;;;;5056693;28;20089;-83
2024/01/07 06:38:04;;;;;;;4.72;2.88;;;6.90;99.90;;;;;;5080277;28;20055;-81
2024/01/07 06:41:03;;;;;;;6.35;3.97;;;6.90;99.90;;;;;;5044830;28;20113;-81
2024/01/07 06:43:39;;;;;;;6.45;3.35;;;6.90;99.90;;;;;;5061029;28;20143;-80
2024/01/07 06:46:35;;;;;;;7.05;3.67;;;6.90;99.90;;;;;;5078299;28;20222;-81
2024/01/07 06:49:10;;;;;;;7.45;4.05;;;6.90;99.90;;;;;;5055638;28;20063;-81
2024/01/07 06:52:05;;;;;;;7.82;4.20;;;6.90;99.90;;;;;;5077221;28;20056;-80
2024/01/07 06:54:41;;;;;;;10.75;5.28;;;6.90;99.90;;;;;;5060434;28;20062;-81
2024/01/07 06:57:29;;;;;;;;;;;6.90;99.90;;;;;;5056018;28;20464;-80
2024/01/07 07:00:25;;;;;;;8.40;4.32;;;6.90;99.90;;;;;;5048968;28;19934;-81
2024/01/07 07:03:20;;;;;;;8.65;4.97;;;6.90;99.90;;;;;;5072440;28;20044;-82
2024/01/07 07:05:55;;;;;;;9.35;5.13;;;6.90;99.90;;;;;;5057521;28;20050;-81
2024/01/07 07:08:58;;;;;;;11.77;6.13;;;6.90;99.90;;;;;;5083111;28;20425;-80
2024/01/07 07:11:55;;;;;;;9.18;4.43;;;6.90;99.90;;;;;;5060909;28;20534;-81
2024/01/07 07:14:30;;;;;;;7.80;4.38;;;7.00;99.90;;;;;;5066971;28;20819;-81
2024/01/07 07:17:19;;;;;;;8.77;4.20;;;7.00;99.90;;;;;;5054070;28;23163;-79
2024/01/07 07:20:00;;;;;;;8.57;4.05;;;6.90;99.90;;;;;;5078057;28;20041;-79
2024/01/07 07:22:49;;;;;;;7.05;3.97;;;6.90;99.90;;;;;;5052281;28;20048;-80
2024/01/07 07:25:37;;;;;;;6.13;3.40;;;6.90;99.90;;;;;;5052618;28;20067;-80
2024/01/07 07:28:21;;;;;;;5.95;3.42;;;7.00;99.90;;;;;;5055303;28;20052;-81
2024/01/07 07:31:10;;;;;;;8.88;4.40;;;6.90;99.90;;;;;;5056431;28;20292;-79
2024/01/07 07:33:59;;;;;;;7.60;4.70;;;7.00;99.90;;;;;;5076757;28;20129;-82
2024/01/07 07:36:46;;;;;;;7.95;4.38;;;7.00;99.90;;;;;;5070333;28;22505;-81
2024/01/07 07:39:41;;;;;;;9.20;5.15;;;7.00;99.90;;;;;;5052530;28;20056;-79
2024/01/07 07:42:16;;;;;;;11.90;5.78;;;7.00;99.90;;;;;;5057152;28;20136;-83
2024/01/07 07:45:07;;;;;;;11.25;5.75;;;7.00;99.90;;;;;;5070342;28;20130;-80
2024/01/07 07:47:55;;;;;;;10.57;4.65;;;7.00;99.90;;;;;;5073104;28;20051;-81
2024/01/07 07:50:44;;;;;;;9.35;4.82;;;7.00;99.90;;;;;;5075818;28;20052;-82
2024/01/07 07:53:25;;;;;;;12.30;4.88;;;7.00;99.90;;;;;;5073678;28;20051;-81
2024/01/07 07:56:14;;;;;;;13.63;6.18;;;7.00;99.90;;;;;;5058851;28;20105;-79
2024/01/07 07:59:01;;;;;;;14.85;6.57;;;7.10;99.90;;;;;;5071597;28;20067;-79
2024/01/07 08:02:00;;;;;;;13.40;6.60;;;7.10;99.90;;;;;;5060624;28;20056;-80
2024/01/07 08:04:35;;;;;;;16.48;7.28;;;7.00;99.90;;;;;;5074267;28;20147;-77
2024/01/07 08:07:30;;;;;;;16.25;7.88;;;7.10;99.90;;;;;;5051268;28;20078;-77
2024/01/07 08:10:28;;;;;;;16.75;7.90;;;7.00;99.90;;;;;;5076241;28;20078;-81
2024/01/07 08:13:03;;;;;;;19.58;8.10;;;7.00;99.90;;;;;;5087254;28;20083;-81
2024/01/07 08:15:53;;;;;;;19.08;8.80;;;7.00;99.90;;;;;;5071135;28;20498;-82
2024/01/07 08:18:44;;;;;;;17.75;8.40;;;7.00;99.90;;;;;;5085836;28;20047;-82
2024/01/07 08:21:42;;;;;;;21.35;8.73;;;7.00;99.90;;;;;;5071286;28;20075;-82
2024/01/07 08:24:17;;;;;;;29.13;11.88;;;7.00;99.90;;;;;;5068380;28;20176;-82
2024/01/07 08:27:12;;;;;;;18.27;8.95;;;7.00;99.90;;;;;;5063168;28;20058;-83
2024/01/07 08:29:47;;;;;;;22.52;10.93;;;7.00;99.90;;;;;;5078351;28;20062;-83
2024/01/07 08:32:42;;;;;;;20.40;10.88;;;7.10;99.90;;;;;;5081226;28;20186;-82
2024/01/07 08:35:19;;;;;;;17.65;9.20;;;7.00;99.90;;;;;;5069112;28;20074;-84
2024/01/07 08:38:14;;;;;;;19.63;9.55;;;7.00;99.90;;;;;;5078459;28;20056;-84
2024/01/07 08:40:49;;;;;;;23.52;11.38;;;7.00;99.90;;;;;;5056614;28;20546;-84
2024/01/07 08:43:45;;;;;;;24.45;12.68;;;7.00;99.90;;;;;;5062596;28;20052;-84
2024/01/07 08:46:21;;;;;;;22.67;10.95;;;7.00;99.90;;;;;;5065403;28;20051;-84
2024/01/07 08:49:16;;;;;;;;;;;7.00;99.90;;;;;;5066251;28;20205;-84
2024/01/07 08:51:52;;;;;;;19.98;10.60;;;7.00;99.90;;;;;;5075632;28;19961;-82
2024/01/07 08:54:40;;;;;;;;;;;7.00;99.90;;;;;;5087396;28;20105;-83
2024/01/07 08:57:28;;;;;;;20.30;10.25;;;7.00;99.90;;;;;;5057596;28;19923;-81
2024/01/07 09:00:19;;;;;;;21.92;9.80;;;7.00;99.90;;;;;;5059075;28;20105;-80
2024/01/07 09:03:14;;;;;;;20.70;10.27;;;7.00;99.90;;;;;;5060145;28;20056;-81
2024/01/07 09:05:49;;;;;;;25.23;11.48;;;7.00;99.90;;;;;;5057243;28;20048;-79
2024/01/07 09:08:39;;;;;;;17.42;8.07;;;7.10;99.90;;;;;;5049656;28;20062;-78
2024/01/07 09:11:28;;;;;;;22.55;10.80;;;7.10;99.90;;;;;;5069383;28;20055;-79
2024/01/07 09:14:10;;;;;;;19.08;10.43;;;7.10;99.90;;;;;;5057998;28;20060;-78
2024/01/07 09:16:57;;;;;;;18.23;10.38;;;7.10;99.90;;;;;;5075429;28;20095;-80
2024/01/07 09:19:39;;;;;;;18.40;8.75;;;7.10;99.90;;;;;;5075167;28;20141;-80
2024/01/07 09:22:27;;;;;;;21.65;11.40;;;7.10;99.90;;;;;;5081829;28;20044;-80
2024/01/07 09:25:11;;;;;;;17.05;9.13;;;7.10;99.90;;;;;;5070079;28;20135;-78
2024/01/07 09:27:58;;;;;;;21.13;9.13;;;7.10;99.90;;;;;;5076414;28;20055;-78
2024/01/07 09:30:55;;;;;;;20.25;9.85;;;7.10;99.90;;;;;;5077955;28;20410;-81
2024/01/07 09:33:30;;;;;;;26.17;12.20;;;7.10;99.90;;;;;;5072138;28;22810;-79
2024/01/07 09:36:18;;;;;;;20.42;10.48;;;7.10;99.90;;;;;;5074273;28;20051;-79
2024/01/07 09:39:10;;;;;;;21.33;11.43;;;7.20;99.90;;;;;;5077447;28;20052;-78
2024/01/07 09:41:54;;;;;;;26.63;12.23;;;7.10;99.90;;;;;;5080150;28;20109;-80
2024/01/07 09:44:43;;;;;;;24.95;13.20;;;7.20;99.90;;;;;;5074253;28;20194;-78
2024/01/07 09:47:24;;;;;;;;;;;7.20;99.90;;;;;;5060894;28;20054;-81
2024/01/07 09:50:13;;;;;;;45.53;22.75;;;7.20;99.90;;;;;;5075285;28;19935;-81
2024/01/07 09:53:00;;;;;;;40.70;20.50;;;7.20;99.90;;;;;;5078117;28;20039;-80
2024/01/07 09:55:59;;;;;;;48.47;25.65;;;7.20;99.90;;;;;;5073811;28;20108;-80
2024/01/07 09:58:50;;;;;;;26.95;15.90;;;7.20;99.90;;;;;;5074344;28;20051;-79
2024/01/07 10:01:45;;;;;;;20.58;9.95;;;7.20;99.90;;;;;;5045342;28;20069;-79
2024/01/07 10:04:37;;;;;;;17.38;8.82;;;7.30;99.90;;;;;;5057653;28;20052;-80
2024/01/07 10:07:18;;;;;;;19.80;9.43;;;7.30;99.90;;;;;;5037071;28;20052;-80
2024/01/07 10:10:15;;;;;;;18.70;9.35;;;7.30;99.90;;;;;;5049341;28;20064;-78
2024/01/07 10:13:02;;;;;;;15.60;8.95;;;7.30;99.90;;;;;;5036930;28;20064;-80
2024/01/07 10:15:45;;;;;;;17.70;8.93;;;7.30;99.90;;;;;;5043438;28;20515;-79
2024/01/07 10:18:34;;;;;;;15.85;8.13;;;7.30;99.90;;;;;;5042094;28;20054;-78
2024/01/07 10:21:16;;;;;;;17.50;8.85;;;7.30;99.90;;;;;;5047809;28;20091;-79
2024/01/07 10:24:15;;;;;;;15.13;8.02;;;7.30;99.90;;;;;;5054048;28;20143;-78
2024/01/07 10:27:05;;;;;;;18.60;10.50;;;7.30;99.90;;;;;;5042920;28;20051;-79
2024/01/07 10:29:55;;;;;;;34.13;15.48;;;7.30;99.90;;;;;;5039921;28;20056;-77
2024/01/07 10:32:38;;;;;;;25.10;14.35;;;7.30;99.90;;;;;;5034019;28;20059;-79
2024/01/07 10:35:30;;;;;;;22.83;11.60;;;7.30;99.90;;;;;;5040770;28;20048;-76
2024/01/07 10:38:11;;;;;;;144.85;37.05;;;7.30;99.90;;;;;;5052731;28;20054;-78
2024/01/07 10:41:03;;;;;;;19.88;10.55;;;7.30;99.90;;;;;;5051213;28;20408;-77
2024/01/07 10:43:48;;;;;;;26.05;11.45;;;7.30;99.90;;;;;;5021876;28;20427;-79
2024/01/07 10:46:36;;;;;;;45.90;19.33;;;7.30;99.90;;;;;;5040274;28;20059;-79
2024/01/07 10:49:21;;;;;;;21.08;12.02;;;7.30;99.90;;;;;;5053588;28;20056;-76
2024/01/07 10:52:13;;;;;;;17.55;9.23;;;7.20;99.90;;;;;;5045250;28;20403;-76
2024/01/07 10:55:09;;;;;;;19.95;11.18;;;7.20;99.90;;;;;;5051052;28;20098;-78
2024/01/07 10:57:53;;;;;;;11.75;7.57;;;7.20;99.90;;;;;;5030907;28;20052;-79
2024/01/07 11:00:48;;;;;;;14.68;8.13;;;7.20;99.90;;;;;;5055108;28;20052;-78
2024/01/07 11:03:45;;;;;;;14.43;9.07;;;7.20;99.90;;;;;;5064467;28;20048;-75
2024/01/07 11:06:40;;;;;;;12.25;7.22;;;7.20;99.90;;;;;;5051923;28;20055;-76
2024/01/07 11:09:33;;;;;;;9.70;6.05;;;7.20;99.90;;;;;;5054092;28;20051;-80
2024/01/07 11:12:22;;;;;;;12.10;6.63;;;7.20;99.90;;;;;;5068795;28;20055;-76
2024/01/07 11:15:12;;;;;;;13.43;6.65;;;7.20;99.90;;;;;;5085474;27;20067;-77
2024/01/07 11:18:02;;;;;;;22.33;11.18;;;7.20;99.90;;;;;;5089141;27;20056;-76
2024/01/07 11:20:45;;;;;;;11.93;6.70;;;7.20;99.90;;;;;;5055825;28;20052;-77
2024/01/07 11:23:39;;;;;;;9.88;5.10;;;7.20;99.90;;;;;;5069793;28;20932;-76
2024/01/07 11:26:25;;;;;;;22.98;13.13;;;7.20;99.90;;;;;;5070847;28;20536;-77
2024/01/07 11:29:16;;;;;;;10.55;6.63;;;7.10;99.90;;;;;;5058966;28;20566;-76
2024/01/07 11:32:00;;;;;;;12.98;7.45;;;7.10;99.90;;;;;;5072296;28;20098;-80
2024/01/07 11:34:52;;;;;;;11.00;6.38;;;7.10;99.90;;;;;;5055293;28;20051;-78
2024/01/07 11:37:35;;;;;;;10.52;4.80;;;7.20;99.90;;;;;;5089159;27;20517;-78
2024/01/07 11:40:24;;;;;;;10.00;5.80;;;7.20;99.90;;;;;;5054416;28;20055;-78
2024/01/07 11:43:06;;;;;;;9.48;4.90;;;7.20;99.90;;;;;;5088170;27;20276;-78
2024/01/07 11:45:58;;;;;;;12.35;7.30;;;7.20;99.90;;;;;;5070502;28;20058;-76
2024/01/07 11:48:57;;;;;;;10.73;5.78;;;7.10;99.90;;;;;;5062091;28;20043;-77
2024/01/07 11:51:35;;;;;;;10.48;6.00;;;7.20;99.90;;;;;;5094467;27;20055;-79
2024/01/07 11:54:30;;;;;;;;;;;7.10;99.90;;;;;;5057336;28;20048;-76
2024/01/07 11:57:07;;;;;;;9.70;4.82;;;7.10;99.90;;;;;;5084641;28;19920;-75
2024/01/07 12:00:03;;;;;;;;;;;7.00;99.90;;;;;;5043790;28;20193;-80
2024/01/07 12:02:59;;;;;;;9.63;4.97;;;7.10;99.90;;;;;;5075809;28;19928;-78
2024/01/07 12:05:34;;;;;;;7.68;3.80;;;7.00;99.90;;;;;;5056442;28;20052;-77
2024/01/07 12:08:31;;;;;;;14.52;6.90;;;7.00;99.90;;;;;;5071489;28;20097;-77
2024/01/07 12:11:11;;;;;;;12.15;6.75;;;7.00;99.90;;;;;;5058272;28;20078;-78
2024/01/07 12:14:07;;;;;;;9.55;5.88;;;7.10;99.90;;;;;;5055658;28;20142;-80
2024/01/07 12:17:03;;;;;;;11.63;6.07;;;7.00;99.90;;;;;;5074946;28;20525;-79
2024/01/07 12:19:38;;;;;;;10.93;5.93;;;7.00;99.90;;;;;;5061523;28;20059;-77
2024/01/07 12:22:28;;;;;;;10.38;5.18;;;7.00;99.90;;;;;;5059610;28;20052;-77
2024/01/07 12:25:12;;;;;;;11.35;5.82;;;7.00;99.90;;;;;;5075755;28;20083;-83
2024/01/07 12:28:09;;;;;;;8.15;4.43;;;7.00;99.90;;;;;;5057710;28;20048;-83
2024/01/07 12:30:46;;;;;;;12.23;6.05;;;7.00;99.90;;;;;;5059698;28;20407;-83
2024/01/07 12:33:34;;;;;;;;;;;7.10;99.90;;;;;;5074816;28;20118;-84
2024/01/07 12:36:16;;;;;;;14.52;7.57;;;7.10;99.90;;;;;;5056901;28;19935;-83
2024/01/07 12:39:13;;;;;;;10.90;5.47;;;7.00;99.90;;;;;;5075762;28;20072;-83
2024/01/07 12:41:48;;;;;;;21.55;13.57;;;6.90;99.90;;;;;;5071682;28;20063;-85
2024/01/07 12:44:47;;;;;;;16.52;9.20;;;6.90;99.90;;;;;;5058821;28;20214;-88
2024/01/07 12:47:24;;;;;;;19.33;10.18;;;6.90;99.90;;;;;;5061326;28;20236;-83
2024/01/07 12:50:21;;;;;;;;;;;6.90;99.90;;;;;;5058527;28;20056;-85
2024/01/07 12:53:11;;;;;;;18.17;12.13;;;6.80;99.90;;;;;;5054127;28;19928;-85
2024/01/07 12:56:00;;;;;;;18.10;11.32;;;6.80;99.90;;;;;;5069459;28;20998;-86
2024/01/07 12:58:42;;;;;;;24.48;10.75;;;6.80;99.90;;;;;;5062252;28;20133;-86
2024/01/07 13:01:37;;;;;;;22.80;9.88;;;6.70;99.90;;;;;;5071419;28;20055;-87
2024/01/07 13:04:15;;;;;;;18.40;8.75;;;6.50;99.90;;;;;;5055252;28;20617;-86
2024/01/07 13:07:03;;;;;;;;;;;6.50;99.90;;;;;;5075013;28;20081;-84
2024/01/07 13:09:45;;;;;;;13.45;7.65;;;6.50;99.90;;;;;;5041988;28;22664;-82
2024/01/07 13:12:36;;;;;;;13.82;7.78;;;6.40;99.90;;;;;;5054475;28;20826;-86
2024/01/07 13:15:28;;;;;;;17.15;7.35;;;6.50;99.90;;;;;;5059708;28;20052;-87
2024/01/07 13:18:17;;;;;;;15.70;7.40;;;6.40;99.90;;;;;;5060780;28;22666;-88
2024/01/07 13:21:00;;;;;;;17.90;8.25;;;6.40;99.90;;;;;;5058292;28;21059;-85
2024/01/07 13:23:49;;;;;;;19.10;9.48;;;6.40;99.90;;;;;;5055286;28;20058;-86
2024/01/07 13:26:36;;;;;;;22.77;10.40;;;6.40;99.90;;;;;;5066545;28;20280;-86
2024/01/07 13:29:31;;;;;;;14.43;7.80;;;6.30;99.90;;;;;;5067644;28;20784;-87
2024/01/07 13:32:06;;;;;;;10.82;5.82;;;6.30;99.90;;;;;;5056655;28;20063;-86
2024/01/07 13:34:55;;;;;;;17.63;8.90;;;6.30;99.90;;;;;;5045988;28;20063;-87
2024/01/07 13:37:47;;;;;;;13.98;7.32;;;6.20;99.90;;;;;;5055960;28;20595;-87
2024/01/07 13:40:28;;;;;;;11.10;6.35;;;6.20;99.90;;;;;;5067489;28;20102;-86
2024/01/07 13:43:17;;;;;;;11.85;6.63;;;6.20;99.90;;;;;;5059507;28;20051;-85
2024/01/07 13:45:59;;;;;;;11.23;5.90;;;6.20;99.90;;;;;;5051448;28;20055;-86
2024/01/07 13:48:46;;;;;;;14.98;7.43;;;6.20;99.90;;;;;;5065324;28;20036;-86
2024/01/07 13:51:37;;;;;;;15.23;8.20;;;6.20;99.90;;;;;;5067270;28;20062;-88
2024/01/07 13:54:28;;;;;;;13.75;7.47;;;6.10;99.90;;;;;;5054563;28;20059;-88
2024/01/07 13:57:16;;;;;;;12.23;6.03;;;6.10;99.90;;;;;;5049744;28;20051;-91
2024/01/07 14:00:08;;;;;;;7.95;4.55;;;6.00;99.90;;;;;;5066614;28;20093;-88
2024/01/07 14:03:05;;;;;;;10.45;4.70;;;6.00;99.90;;;;;;5027354;28;21300;-87
2024/01/07 14:06:04;;;;;;;10.80;7.10;;;5.90;99.90;;;;;;5045939;28;20048;-86